Time;durP1;ratioP1;P1;durP2;ratioP2;P2;SDS_P1;SDS_P2;PMS_P1;PMS_P2;Temp;Humidity;BMP_temperature;BMP_pressure;BME280_temperature;BME280_humidity;BME280_pressure;Samples;Min_cycle;Max_cycle;Signal;HPM_P1;HPM_P2
2021/03/09 00:01:32;;;;;;;1999.90;999.90;;;4.80;99.90;;;;;;4977312;28;20530;-78
2021/03/09 00:03:57;;;;;;;1999.90;999.90;;;4.80;99.90;;;;;;4977477;28;20182;-79
2021/03/09 00:06:23;;;;;;;1999.90;999.90;;;4.80;99.90;;;;;;4977640;28;20167;-79
2021/03/09 00:08:49;;;;;;;1999.90;999.90;;;4.80;99.90;;;;;;4977912;28;20183;-79
2021/03/09 00:11:14;;;;;;;1999.90;999.90;;;4.80;99.90;;;;;;4977814;28;20450;-79
2021/03/09 00:13:40;;;;;;;1999.90;999.90;;;4.70;99.90;;;;;;4977522;28;20203;-79
2021/03/09 00:16:06;;;;;;;1999.90;999.90;;;4.70;99.90;;;;;;4977309;28;20167;-79
2021/03/09 00:18:31;;;;;;;1999.90;999.90;;;4.70;99.90;;;;;;4977012;28;20181;-79
2021/03/09 00:20:57;;;;;;;1999.90;999.90;;;4.70;99.90;;;;;;4977682;28;20200;-79
2021/03/09 00:23:23;;;;;;;1999.90;999.90;;;4.60;99.90;;;;;;4962615;28;20191;-79
2021/03/09 00:25:48;;;;;;;1999.90;999.90;;;4.60;99.90;;;;;;4981037;28;20567;-79
2021/03/09 00:28:22;;;;;;;1999.90;999.90;;;4.60;99.90;;;;;;4981131;28;20402;-79
2021/03/09 00:30:47;;;;;;;1999.90;999.90;;;4.60;99.90;;;;;;4980760;28;20187;-79
2021/03/09 00:33:13;;;;;;;1999.90;999.90;;;4.60;99.90;;;;;;4980850;28;20211;-79
2021/03/09 00:35:39;;;;;;;1999.90;999.90;;;4.50;99.90;;;;;;4981694;28;20247;-78
2021/03/09 00:38:04;;;;;;;1999.90;999.90;;;4.50;99.90;;;;;;4981048;28;20725;-79
2021/03/09 00:40:30;;;;;;;1999.90;999.90;;;4.40;99.90;;;;;;4980922;28;20203;-79
2021/03/09 00:42:56;;;;;;;1999.90;999.90;;;4.50;99.90;;;;;;4963596;28;20182;-79
2021/03/09 00:45:21;;;;;;;1999.90;999.90;;;4.50;99.90;;;;;;4980624;28;20167;-79
2021/03/09 00:47:47;;;;;;;1999.90;999.90;;;4.50;99.90;;;;;;4980998;28;20222;-79
2021/03/09 00:50:14;;;;;;;1999.90;999.90;;;4.50;99.90;;;;;;4981500;28;20171;-79
2021/03/09 00:52:39;;;;;;;1999.90;999.90;;;4.50;99.90;;;;;;4980322;28;20442;-79
2021/03/09 00:55:06;;;;;;;1999.90;999.90;;;4.50;99.90;;;;;;4980830;28;20174;-79
2021/03/09 00:57:32;;;;;;;1999.90;999.90;;;4.60;99.90;;;;;;4963841;28;20407;-79
2021/03/09 00:59:57;;;;;;;1999.90;999.90;;;4.50;99.90;;;;;;4979208;28;20631;-79
2021/03/09 01:02:23;;;;;;;1999.90;999.90;;;4.60;99.90;;;;;;4979971;28;20172;-79
2021/03/09 01:04:48;;;;;;;1999.90;999.90;;;4.60;99.90;;;;;;4979482;28;20658;-79
2021/03/09 01:07:14;;;;;;;1999.90;999.90;;;4.60;99.90;;;;;;4980113;28;20197;-79
2021/03/09 01:09:40;;;;;;;1999.90;999.90;;;4.60;99.90;;;;;;4980217;28;20204;-79
2021/03/09 01:12:06;;;;;;;1999.90;999.90;;;4.60;99.90;;;;;;4979569;28;20195;-79
2021/03/09 01:14:32;;;;;;;1999.90;999.90;;;4.50;99.90;;;;;;4979546;28;20191;-79
2021/03/09 01:16:57;;;;;;;1999.90;999.90;;;4.50;99.90;;;;;;4979186;28;20179;-79
2021/03/09 01:19:23;;;;;;;1999.90;999.90;;;4.50;99.90;;;;;;4979843;28;20152;-79
2021/03/09 01:21:49;;;;;;;1999.90;999.90;;;4.60;99.90;;;;;;4979071;28;20223;-78
2021/03/09 01:24:14;;;;;;;1999.90;999.90;;;4.50;99.90;;;;;;4978719;28;20200;-79
2021/03/09 01:26:40;;;;;;;1999.90;999.90;;;4.50;99.90;;;;;;4979605;28;20182;-79
2021/03/09 01:29:06;;;;;;;1999.90;999.90;;;4.50;99.90;;;;;;4979239;28;20254;-79
2021/03/09 01:31:31;;;;;;;1999.90;999.90;;;4.50;99.90;;;;;;4979632;28;20279;-79
2021/03/09 01:33:57;;;;;;;1999.90;999.90;;;4.50;99.90;;;;;;4979949;28;20662;-79
2021/03/09 01:36:23;;;;;;;1999.90;999.90;;;4.50;99.90;;;;;;4979843;28;20163;-79
2021/03/09 01:38:48;;;;;;;1999.90;999.90;;;4.50;99.90;;;;;;4980157;28;20534;-78
2021/03/09 01:41:15;;;;;;;1999.90;999.90;;;4.50;99.90;;;;;;4962486;28;20191;-79
2021/03/09 01:43:40;;;;;;;1999.90;999.90;;;4.40;99.90;;;;;;4979776;28;20562;-79
2021/03/09 01:46:06;;;;;;;1999.90;999.90;;;4.40;99.90;;;;;;4980283;28;20167;-79
2021/03/09 01:48:36;;;;;;;1999.90;999.90;;;4.40;99.90;;;;;;4979767;28;20207;-79
2021/03/09 01:51:02;;;;;;;1999.90;999.90;;;4.40;99.90;;;;;;4979954;28;20180;-79
2021/03/09 01:53:29;;;;;;;1999.90;999.90;;;4.30;99.90;;;;;;4979941;28;20186;-79
2021/03/09 01:55:56;;;;;;;1999.90;999.90;;;4.30;99.90;;;;;;4979947;28;20571;-79
2021/03/09 01:58:23;;;;;;;1999.90;999.90;;;4.30;99.90;;;;;;4979816;28;20246;-79
2021/03/09 02:00:49;;;;;;;1999.90;999.90;;;4.30;99.90;;;;;;4979669;28;20167;-79
2021/03/09 02:03:15;;;;;;;1999.90;999.90;;;4.30;99.90;;;;;;4962321;28;20815;-79
2021/03/09 02:05:41;;;;;;;1999.90;999.90;;;4.30;99.90;;;;;;4980144;28;20438;-79
2021/03/09 02:08:07;;;;;;;1999.90;999.90;;;4.30;99.90;;;;;;4979850;28;20173;-79
2021/03/09 02:10:33;;;;;;;1999.90;999.90;;;4.40;99.90;;;;;;4962481;28;20179;-79
2021/03/09 02:13:40;;;;;;;1999.90;999.90;;;4.30;99.90;;;;;;4980031;28;20431;-79
2021/03/09 02:16:24;;;;;;;1999.90;999.90;;;4.30;99.90;;;;;;4971917;28;20205;-79
2021/03/09 02:19:11;;;;;;;1999.90;999.90;;;4.20;99.90;;;;;;4979707;28;20526;-79
2021/03/09 02:22:02;;;;;;;1999.90;999.90;;;4.30;99.90;;;;;;4961809;28;20175;-79
2021/03/09 02:25:02;;;;;;;1999.90;999.90;;;4.20;99.90;;;;;;4962100;28;20190;-79
2021/03/09 02:27:33;;;;;;;1999.90;999.90;;;4.20;99.90;;;;;;4978996;28;20170;-79
2021/03/09 02:30:12;;;;;;;1999.90;999.90;;;4.20;99.90;;;;;;4963782;28;20159;-79
2021/03/09 02:33:02;;;;;;;1999.90;999.90;;;4.20;99.90;;;;;;4981236;28;20568;-79
2021/03/09 02:35:29;;;;;;;1999.90;999.90;;;4.20;99.90;;;;;;4979367;28;20555;-79
2021/03/09 02:38:00;;;;;;;1999.90;999.90;;;4.20;99.90;;;;;;4978587;28;20160;-79
2021/03/09 02:40:28;;;;;;;1999.90;999.90;;;4.20;99.90;;;;;;4961053;28;20163;-79
2021/03/09 02:43:00;;;;;;;1999.90;999.90;;;4.20;99.90;;;;;;4978240;28;20249;-79
2021/03/09 02:45:30;;;;;;;1999.90;999.90;;;4.20;99.90;;;;;;4977609;28;20151;-79
2021/03/09 02:47:58;;;;;;;1999.90;999.90;;;4.20;99.90;;;;;;4977831;28;20164;-79
2021/03/09 02:50:26;;;;;;;1999.90;999.90;;;4.20;99.90;;;;;;4977538;28;20167;-79
2021/03/09 02:53:01;;;;;;;1999.90;999.90;;;4.20;99.90;;;;;;4977475;28;20195;-79
2021/03/09 02:55:29;;;;;;;1999.90;999.90;;;4.20;99.90;;;;;;4960603;28;20162;-79
2021/03/09 02:57:57;;;;;;;1999.90;999.90;;;4.20;99.90;;;;;;4977500;28;20177;-79
2021/03/09 03:00:23;;;;;;;1999.90;999.90;;;4.20;99.90;;;;;;4977774;28;20250;-79
2021/03/09 03:02:50;;;;;;;1999.90;999.90;;;4.20;99.90;;;;;;4977427;28;20870;-79
2021/03/09 03:05:18;;;;;;;1999.90;999.90;;;4.20;99.90;;;;;;4977410;28;20168;-79
2021/03/09 03:07:45;;;;;;;1999.90;999.90;;;4.30;99.90;;;;;;4977619;28;20218;-79
2021/03/09 03:10:15;;;;;;;1999.90;999.90;;;4.20;99.90;;;;;;4978150;28;20230;-79
2021/03/09 03:12:42;;;;;;;1999.90;999.90;;;4.20;99.90;;;;;;4977072;28;20195;-79
2021/03/09 03:15:11;;;;;;;1999.90;999.90;;;4.20;99.90;;;;;;4977055;28;20195;-79
2021/03/09 03:17:38;;;;;;;1999.90;999.90;;;4.20;99.90;;;;;;4976819;28;20197;-79
2021/03/09 03:20:07;;;;;;;1999.90;999.90;;;4.20;99.90;;;;;;4977529;28;20250;-79
2021/03/09 03:22:33;;;;;;;1999.90;999.90;;;4.20;99.90;;;;;;4959495;28;20175;-79
2021/03/09 03:25:03;;;;;;;1999.90;999.90;;;4.20;99.90;;;;;;4976878;28;20174;-79
2021/03/09 03:27:30;;;;;;;1999.90;999.90;;;4.20;99.90;;;;;;4977269;28;20691;-79
2021/03/09 03:29:56;;;;;;;1999.90;999.90;;;4.20;99.90;;;;;;4976659;28;20177;-79
2021/03/09 03:32:22;;;;;;;1999.90;999.90;;;4.20;99.90;;;;;;4976651;28;20199;-79
2021/03/09 03:34:50;;;;;;;1999.90;999.90;;;4.20;99.90;;;;;;4977236;28;20183;-79
2021/03/09 03:37:16;;;;;;;1999.90;999.90;;;4.10;99.90;;;;;;4977370;28;20170;-79
2021/03/09 03:39:42;;;;;;;1999.90;999.90;;;4.10;99.90;;;;;;4977299;28;20167;-79
2021/03/09 03:42:09;;;;;;;1999.90;999.90;;;4.10;99.90;;;;;;4960173;28;20642;-79
2021/03/09 03:44:34;;;;;;;1999.90;999.90;;;4.10;99.90;;;;;;4959891;28;20439;-79
2021/03/09 03:47:00;;;;;;;1999.90;999.90;;;4.10;99.90;;;;;;4977485;28;20167;-79
2021/03/09 03:49:26;;;;;;;1999.90;999.90;;;4.10;99.90;;;;;;4959934;28;20171;-79
2021/03/09 03:51:59;;;;;;;1999.90;999.90;;;4.10;99.90;;;;;;4977327;28;20198;-79
2021/03/09 03:54:42;;;;;;;1999.90;999.90;;;4.10;99.90;;;;;;4977338;28;20229;-79
2021/03/09 03:57:15;;;;;;;1999.90;999.90;;;4.10;99.90;;;;;;4979269;28;20152;-79
2021/03/09 03:59:44;;;;;;;1999.90;999.90;;;4.10;99.90;;;;;;4982132;28;20550;-79
2021/03/09 04:02:12;;;;;;;1999.90;999.90;;;4.10;99.90;;;;;;4981190;28;20242;-79
2021/03/09 04:04:39;;;;;;;1999.90;999.90;;;4.10;99.90;;;;;;4981107;28;20725;-79
2021/03/09 04:07:08;;;;;;;1999.90;999.90;;;4.00;99.90;;;;;;4981921;28;20171;-79
2021/03/09 04:09:35;;;;;;;1999.90;999.90;;;4.00;99.90;;;;;;4963986;28;20179;-79
2021/03/09 04:12:02;;;;;;;1999.90;999.90;;;4.00;99.90;;;;;;4981617;28;20195;-80
2021/03/09 04:14:32;;;;;;;1999.90;999.90;;;4.00;99.90;;;;;;4981722;28;20783;-79
2021/03/09 04:16:59;;;;;;;1999.90;999.90;;;4.10;99.90;;;;;;4981554;28;20182;-79
2021/03/09 04:19:25;;;;;;;1999.90;999.90;;;4.10;99.90;;;;;;4981007;28;20203;-79
2021/03/09 04:21:51;;;;;;;1999.90;999.90;;;4.10;99.90;;;;;;4964024;28;20171;-79
2021/03/09 04:24:20;;;;;;;1999.90;999.90;;;4.10;99.90;;;;;;4981165;28;20210;-79
2021/03/09 04:26:47;;;;;;;1999.90;999.90;;;4.00;99.90;;;;;;4980718;28;20210;-79
2021/03/09 04:29:15;;;;;;;1999.90;999.90;;;4.00;99.90;;;;;;4980804;28;20171;-79
2021/03/09 04:31:42;;;;;;;1999.90;999.90;;;4.00;99.90;;;;;;4980735;28;20210;-79
2021/03/09 04:34:08;;;;;;;1999.90;999.90;;;4.10;99.90;;;;;;4980338;28;20544;-79
2021/03/09 04:36:35;;;;;;;1999.90;999.90;;;4.10;99.90;;;;;;4963314;28;20653;-79
2021/03/09 04:39:04;;;;;;;1999.90;999.90;;;4.10;99.90;;;;;;4980551;28;20195;-77
2021/03/09 04:41:31;;;;;;;1999.90;999.90;;;4.10;99.90;;;;;;4980442;28;20201;-79
2021/03/09 04:43:59;;;;;;;1999.90;999.90;;;4.10;99.90;;;;;;4979882;28;20198;-79
2021/03/09 04:46:25;;;;;;;1999.90;999.90;;;4.10;99.90;;;;;;4980055;28;20507;-79
2021/03/09 04:48:51;;;;;;;1999.90;999.90;;;4.10;99.90;;;;;;4980090;28;20179;-79
2021/03/09 04:51:18;;;;;;;1999.90;999.90;;;4.10;99.90;;;;;;4979990;28;20486;-79
2021/03/09 04:53:45;;;;;;;1999.90;999.90;;;4.10;99.90;;;;;;4979498;28;20274;-79
2021/03/09 04:56:11;;;;;;;1999.90;999.90;;;4.10;99.90;;;;;;5030483;23;20222;-79
2021/03/09 04:58:37;;;;;;;1999.90;999.90;;;4.20;99.90;;;;;;4980631;28;20164;-79
2021/03/09 05:01:04;;;;;;;1999.90;999.90;;;4.20;99.90;;;;;;4982593;28;20414;-80
2021/03/09 05:03:34;;;;;;;1999.90;999.90;;;4.40;99.90;;;;;;4982581;28;20183;-79
2021/03/09 05:06:00;;;;;;;1999.90;999.90;;;4.40;99.90;;;;;;4981443;28;20189;-79
2021/03/09 05:08:26;;;;;;;1999.90;999.90;;;4.40;99.90;;;;;;4981509;28;20199;-79
2021/03/09 05:10:55;;;;;;;1999.90;999.90;;;4.50;99.90;;;;;;4982476;28;20206;-80
2021/03/09 05:13:21;;;;;;;1999.90;999.90;;;4.50;99.90;;;;;;4981338;28;20195;-80
2021/03/09 05:15:46;;;;;;;1999.90;999.90;;;4.40;99.90;;;;;;4981994;28;20681;-79
2021/03/09 05:18:13;;;;;;;1999.90;999.90;;;4.40;99.90;;;;;;4982209;28;20203;-79
2021/03/09 05:20:39;;;;;;;1999.90;999.90;;;4.40;99.90;;;;;;4982822;28;20210;-79
2021/03/09 05:23:05;;;;;;;1999.90;999.90;;;4.40;99.90;;;;;;4984481;28;20187;-79
2021/03/09 05:25:31;;;;;;;1999.90;999.90;;;4.50;99.90;;;;;;4965937;28;20253;-79
2021/03/09 05:27:57;;;;;;;1999.90;999.90;;;4.40;99.90;;;;;;4982954;28;20390;-80
2021/03/09 05:30:23;;;;;;;1999.90;999.90;;;4.40;99.90;;;;;;4982618;28;20498;-80
2021/03/09 05:32:49;;;;;;;1999.90;999.90;;;4.30;99.90;;;;;;4982613;28;20213;-79
2021/03/09 05:35:16;;;;;;;1999.90;999.90;;;4.30;99.90;;;;;;4982081;28;20178;-80
2021/03/09 05:37:43;;;;;;;1999.90;999.90;;;4.30;99.90;;;;;;4982376;28;20566;-80
2021/03/09 05:40:10;;;;;;;1999.90;999.90;;;4.30;99.90;;;;;;4981912;28;20701;-80
2021/03/09 05:42:36;;;;;;;1999.90;999.90;;;4.30;99.90;;;;;;4980479;28;20258;-79
2021/03/09 05:45:04;;;;;;;1999.90;999.90;;;4.30;99.90;;;;;;4981910;28;20163;-80
2021/03/09 05:47:33;;;;;;;1999.90;999.90;;;4.20;99.90;;;;;;4981684;28;20542;-79
2021/03/09 05:49:58;;;;;;;1999.90;999.90;;;4.30;99.90;;;;;;4981863;28;20627;-79
2021/03/09 05:52:24;;;;;;;1999.90;999.90;;;4.30;99.90;;;;;;4979850;28;20218;-79
2021/03/09 05:54:51;;;;;;;1999.90;999.90;;;4.40;99.90;;;;;;4981547;28;20558;-80
2021/03/09 05:57:17;;;;;;;1999.90;999.90;;;4.30;99.90;;;;;;4963923;28;20186;-79
2021/03/09 05:59:44;;;;;;;1999.90;999.90;;;4.40;99.90;;;;;;4981951;28;20167;-79
2021/03/09 06:02:09;;;;;;;1999.90;999.90;;;4.40;99.90;;;;;;4964370;28;20172;-80
2021/03/09 06:04:37;;;;;;;1999.90;999.90;;;4.40;99.90;;;;;;4979815;28;20194;-82
2021/03/09 06:07:03;;;;;;;1999.90;999.90;;;4.40;99.90;;;;;;4981713;28;20536;-79
2021/03/09 06:09:38;;;;;;;1999.90;999.90;;;4.40;99.90;;;;;;4963893;28;20194;-80
2021/03/09 06:12:16;;;;;;;1999.90;999.90;;;4.40;99.90;;;;;;4981221;28;20558;-80
2021/03/09 06:14:55;;;;;;;1999.90;999.90;;;4.40;99.90;;;;;;4963562;28;20198;-79
2021/03/09 06:17:37;;;;;;;1999.90;999.90;;;4.40;99.90;;;;;;4962188;28;20226;-79
2021/03/09 06:20:07;;;;;;;1999.90;999.90;;;4.40;99.90;;;;;;4980588;28;20140;-79
2021/03/09 06:22:42;;;;;;;1999.90;999.90;;;4.40;99.90;;;;;;4963325;28;20250;-79
2021/03/09 06:25:11;;;;;;;1999.90;999.90;;;4.40;99.90;;;;;;4979813;28;20174;-80
2021/03/09 06:27:38;;;;;;;1999.90;999.90;;;4.40;99.90;;;;;;4981108;28;20182;-79
2021/03/09 06:30:08;;;;;;;1999.90;999.90;;;4.40;99.90;;;;;;4980349;28;20195;-80
2021/03/09 06:32:46;;;;;;;1999.90;999.90;;;4.40;99.90;;;;;;4963251;28;20199;-79
2021/03/09 06:35:34;;;;;;;1999.90;999.90;;;4.50;99.90;;;;;;4962359;28;20174;-79
2021/03/09 06:38:21;;;;;;;1999.90;999.90;;;4.50;99.90;;;;;;4961785;28;20175;-80
2021/03/09 06:41:07;;;;;;;1999.90;999.90;;;4.50;99.90;;;;;;4961851;28;20314;-80
2021/03/09 06:43:34;;;;;;;1999.90;999.90;;;4.50;99.90;;;;;;4980196;28;20187;-80
2021/03/09 06:46:21;;;;;;;1999.90;999.90;;;4.50;99.90;;;;;;4964083;28;20537;-80
2021/03/09 06:48:50;;;;;;;1999.90;999.90;;;4.40;99.90;;;;;;4982786;28;20193;-80
2021/03/09 06:51:30;;;;;;;1999.90;999.90;;;4.40;99.90;;;;;;4982296;28;20193;-80
2021/03/09 06:54:05;;;;;;;1999.90;999.90;;;4.30;99.90;;;;;;4981815;28;20186;-80
2021/03/09 06:56:32;;;;;;;1999.90;999.90;;;4.30;99.90;;;;;;4980943;28;20621;-80
2021/03/09 06:59:27;;;;;;;1999.90;999.90;;;4.50;99.90;;;;;;4981469;28;20166;-80
2021/03/09 07:02:06;;;;;;;1999.90;999.90;;;4.50;99.90;;;;;;4979121;28;20206;-80
2021/03/09 07:04:32;;;;;;;1999.90;999.90;;;4.40;99.90;;;;;;4964032;28;20693;-80
2021/03/09 07:06:59;;;;;;;1999.90;999.90;;;4.40;99.90;;;;;;4980398;28;20520;-80
2021/03/09 07:09:24;;;;;;;1999.90;999.90;;;4.30;99.90;;;;;;4980963;28;20170;-80
2021/03/09 07:11:50;;;;;;;1999.90;999.90;;;4.40;99.90;;;;;;4963240;28;20290;-80
2021/03/09 07:14:18;;;;;;;1999.90;999.90;;;4.40;99.90;;;;;;4981104;28;20234;-80
2021/03/09 07:16:51;;;;;;;1999.90;999.90;;;4.40;99.90;;;;;;4979654;28;20175;-81
2021/03/09 07:19:24;;;;;;;1999.90;999.90;;;4.50;99.90;;;;;;4979557;28;20147;-80
2021/03/09 07:21:50;;;;;;;1999.90;999.90;;;4.50;99.90;;;;;;4979776;28;20171;-80
2021/03/09 07:24:20;;;;;;;1999.90;999.90;;;4.50;99.90;;;;;;4945799;28;20197;-81
2021/03/09 07:26:46;;;;;;;1999.90;999.90;;;4.50;99.90;;;;;;4979810;28;20167;-80
2021/03/09 07:29:16;;;;;;;1999.90;999.90;;;4.50;99.90;;;;;;4980360;28;20228;-82
2021/03/09 07:31:47;;;;;;;1999.90;999.90;;;4.50;99.90;;;;;;4978956;28;20195;-80
2021/03/09 07:34:14;;;;;;;1999.90;999.90;;;4.40;99.90;;;;;;4963373;28;20545;-82
2021/03/09 07:36:40;;;;;;;1999.90;999.90;;;4.40;99.90;;;;;;4980453;28;20163;-82
2021/03/09 07:39:07;;;;;;;1999.90;999.90;;;4.50;99.90;;;;;;4980203;28;20167;-82
2021/03/09 07:41:35;;;;;;;1999.90;999.90;;;4.50;99.90;;;;;;4979649;28;20241;-82
2021/03/09 07:44:01;;;;;;;1999.90;999.90;;;4.60;99.90;;;;;;4978865;28;20198;-82
2021/03/09 07:46:27;;;;;;;1999.90;999.90;;;4.70;99.90;;;;;;4980145;28;20163;-82
2021/03/09 07:48:54;;;;;;;1999.90;999.90;;;4.70;99.90;;;;;;4978729;28;20440;-82
2021/03/09 07:51:21;;;;;;;1999.90;999.90;;;4.70;99.90;;;;;;4979244;28;20230;-81
2021/03/09 07:54:23;;;;;;;1999.90;999.90;;;4.80;99.90;;;;;;4978814;28;20189;-82
2021/03/09 07:57:17;;;;;;;1999.90;999.90;;;4.70;99.90;;;;;;4919034;29;20608;-82
2021/03/09 08:00:08;;;;;;;1999.90;999.90;;;4.80;99.90;;;;;;4961229;28;20207;-82
2021/03/09 08:02:51;;;;;;;1999.90;999.90;;;4.70;99.90;;;;;;4978457;28;20178;-81
2021/03/09 08:05:19;;;;;;;1999.90;999.90;;;4.70;99.90;;;;;;4983152;28;20207;-81
2021/03/09 08:07:53;;;;;;;1999.90;999.90;;;4.70;99.90;;;;;;4984993;28;20155;-81
2021/03/09 08:10:34;;;;;;;1999.90;999.90;;;4.60;99.90;;;;;;4979845;28;20237;-82
2021/03/09 08:13:15;;;;;;;1999.90;999.90;;;4.50;99.90;;;;;;4959946;28;20210;-81
2021/03/09 08:15:41;;;;;;;1999.90;999.90;;;4.70;99.90;;;;;;4977772;28;20234;-81
2021/03/09 08:18:23;;;;;;;1999.90;999.90;;;4.80;99.90;;;;;;4977951;28;20704;-82
2021/03/09 08:20:58;;;;;;;1999.90;999.90;;;4.60;99.90;;;;;;4978305;28;20163;-82
2021/03/09 08:26:00;;;;;;;1999.90;999.90;;;4.60;99.90;;;;;;4979185;28;20266;-82
2021/03/09 08:28:33;;;;;;;1999.90;999.90;;;4.70;99.90;;;;;;4961066;28;20291;-81
2021/03/09 08:31:17;;;;;;;1999.90;999.90;;;4.80;99.90;;;;;;4977112;28;20191;-81
2021/03/09 08:33:48;;;;;;;1999.90;999.90;;;4.90;99.90;;;;;;4960779;28;20198;-81
2021/03/09 08:36:19;;;;;;;1999.90;999.90;;;4.80;99.90;;;;;;4960638;28;20167;-81
2021/03/09 08:39:11;;;;;;;1999.90;999.90;;;4.90;99.90;;;;;;4960303;28;20168;-82
2021/03/09 08:41:40;;;;;;;1999.90;999.90;;;5.00;99.90;;;;;;4978554;28;20175;-82
2021/03/09 08:44:16;;;;;;;1999.90;999.90;;;5.10;99.90;;;;;;4980412;28;20183;-82
2021/03/09 08:47:04;;;;;;;1999.90;999.90;;;5.00;99.90;;;;;;4964834;28;20171;-82
2021/03/09 08:49:35;;;;;;;1999.90;999.90;;;5.10;99.90;;;;;;4982759;28;20248;-82
2021/03/09 08:52:06;;;;;;;1999.90;999.90;;;4.90;99.90;;;;;;4983547;28;20214;-82
2021/03/09 08:54:48;;;;;;;1999.90;999.90;;;5.00;99.90;;;;;;4982763;28;20186;-81
2021/03/09 08:57:20;;;;;;;1999.90;999.90;;;5.00;99.90;;;;;;4983488;28;20190;-79
2021/03/09 08:59:48;;;;;;;1999.90;999.90;;;5.00;99.90;;;;;;4983461;28;20163;-82
2021/03/09 09:02:24;;;;;;;1999.90;999.90;;;5.10;99.90;;;;;;4966769;28;20178;-82
2021/03/09 09:04:58;;;;;;;1999.90;999.90;;;5.10;99.90;;;;;;4967406;28;20191;-82
2021/03/09 09:07:37;;;;;;;1999.90;999.90;;;5.10;99.90;;;;;;4967763;28;20183;-82
2021/03/09 09:10:11;;;;;;;1999.90;999.90;;;5.10;99.90;;;;;;4983316;28;20238;-81
2021/03/09 09:12:40;;;;;;;1999.90;999.90;;;5.10;99.90;;;;;;4965681;28;20202;-82
2021/03/09 09:15:17;;;;;;;1999.90;999.90;;;5.10;99.90;;;;;;4966229;28;20265;-82
2021/03/09 09:17:48;;;;;;;1999.90;999.90;;;5.10;99.90;;;;;;4982619;28;20155;-82
2021/03/09 09:20:28;;;;;;;1999.90;999.90;;;5.10;99.90;;;;;;4966349;28;20167;-82
2021/03/09 09:22:54;;;;;;;1999.90;999.90;;;5.20;99.90;;;;;;4966697;28;20201;-81
2021/03/09 09:25:22;;;;;;;1999.90;999.90;;;5.20;99.90;;;;;;4965531;28;20178;-82
2021/03/09 09:27:53;;;;;;;1999.90;999.90;;;5.20;99.90;;;;;;4965855;28;20183;-80
2021/03/09 09:30:34;;;;;;;1999.90;999.90;;;5.40;99.90;;;;;;4984071;28;20171;-82
2021/03/09 09:33:00;;;;;;;1999.90;999.90;;;5.40;99.90;;;;;;4984091;28;20199;-81
2021/03/09 09:35:29;;;;;;;1999.90;999.90;;;5.40;99.90;;;;;;4983550;28;20171;-82
2021/03/09 09:38:04;;;;;;;1999.90;999.90;;;5.40;99.90;;;;;;4965196;28;20639;-82
2021/03/09 09:40:35;;;;;;;1999.90;999.90;;;5.50;99.90;;;;;;4966173;28;20159;-81
2021/03/09 09:43:04;;;;;;;1999.90;999.90;;;5.40;99.90;;;;;;4964483;28;20202;-81
2021/03/09 09:45:41;;;;;;;1999.90;999.90;;;5.50;99.90;;;;;;4965134;28;20226;-81
2021/03/09 09:48:14;;;;;;;1999.90;999.90;;;5.50;99.90;;;;;;4980426;28;20148;-81
2021/03/09 09:51:00;;;;;;;1999.90;999.90;;;5.50;99.90;;;;;;4962847;28;20170;-81
2021/03/09 09:53:40;;;;;;;1999.90;999.90;;;5.50;99.90;;;;;;4980676;28;20202;-81
2021/03/09 09:56:21;;;;;;;1999.90;999.90;;;5.60;99.90;;;;;;4980570;28;20597;-80
2021/03/09 09:58:54;;;;;;;1999.90;999.90;;;5.60;99.90;;;;;;4980244;28;20250;-81
2021/03/09 10:01:38;;;;;;;1999.90;999.90;;;5.60;99.90;;;;;;4979591;28;20170;-80
2021/03/09 10:04:09;;;;;;;1999.90;999.90;;;5.60;99.90;;;;;;4979519;28;20195;-81
2021/03/09 10:06:51;;;;;;;1999.90;999.90;;;5.50;99.90;;;;;;4980686;28;20272;-80
2021/03/09 10:09:24;;;;;;;1999.90;999.90;;;5.40;99.90;;;;;;4979922;28;20167;-80
2021/03/09 10:11:58;;;;;;;1999.90;999.90;;;5.30;99.90;;;;;;4961909;28;20187;-81
2021/03/09 10:14:26;;;;;;;1999.90;999.90;;;5.30;99.90;;;;;;4961241;28;20245;-78
2021/03/09 10:16:52;;;;;;;1999.90;999.90;;;5.20;99.90;;;;;;4978191;28;20250;-79
2021/03/09 10:19:20;;;;;;;1999.90;999.90;;;5.20;99.90;;;;;;4978078;28;20163;-78
2021/03/09 10:21:50;;;;;;;1999.90;999.90;;;5.20;99.90;;;;;;4960429;28;20178;-78
2021/03/09 10:24:26;;;;;;;1999.90;999.90;;;5.10;99.90;;;;;;4960885;28;20191;-79
2021/03/09 10:26:52;;;;;;;1999.90;999.90;;;5.10;99.90;;;;;;4977829;28;20167;-79
2021/03/09 10:29:23;;;;;;;1999.90;999.90;;;4.80;99.90;;;;;;4977858;28;20194;-79
2021/03/09 10:31:58;;;;;;;1999.90;999.90;;;4.80;99.90;;;;;;4977566;28;20190;-79
2021/03/09 10:34:47;;;;;;;1999.90;999.90;;;4.90;99.90;;;;;;4977611;28;20717;-79
2021/03/09 10:37:15;;;;;;;1999.90;999.90;;;5.00;99.90;;;;;;4977694;28;20175;-79
2021/03/09 10:39:56;;;;;;;1999.90;999.90;;;4.90;99.90;;;;;;4977514;28;20238;-80
2021/03/09 10:42:29;;;;;;;1999.90;999.90;;;5.00;99.90;;;;;;4961055;28;20542;-81
2021/03/09 10:45:20;;;;;;;1999.90;999.90;;;5.00;99.90;;;;;;4981022;28;20230;-81
2021/03/09 10:47:53;;;;;;;1999.90;999.90;;;5.10;99.90;;;;;;4981816;28;20508;-81
2021/03/09 10:50:25;;;;;;;1999.90;999.90;;;5.20;99.90;;;;;;4963839;28;20179;-81
2021/03/09 10:52:51;;;;;;;1999.90;999.90;;;5.20;99.90;;;;;;4963459;28;20210;-81
2021/03/09 10:55:17;;;;;;;1999.90;999.90;;;5.10;99.90;;;;;;4979594;28;20262;-81
2021/03/09 10:57:42;;;;;;;1999.90;999.90;;;5.20;99.90;;;;;;4963340;28;20155;-81
2021/03/09 11:00:13;;;;;;;1999.90;999.90;;;5.30;99.90;;;;;;4980604;28;20167;-81
2021/03/09 11:02:40;;;;;;;1999.90;999.90;;;5.30;99.90;;;;;;4962827;28;20745;-80
2021/03/09 11:05:07;;;;;;;1999.90;999.90;;;5.20;99.90;;;;;;4980648;28;20705;-81
2021/03/09 11:07:32;;;;;;;1999.90;999.90;;;5.30;99.90;;;;;;4962669;28;20234;-81
2021/03/09 11:09:58;;;;;;;1999.90;999.90;;;5.50;99.90;;;;;;4980699;28;20175;-81
2021/03/09 11:12:24;;;;;;;1999.90;999.90;;;5.50;99.90;;;;;;4962557;28;20450;-80
2021/03/09 11:14:50;;;;;;;1999.90;999.90;;;5.50;99.90;;;;;;4979057;28;20195;-80
2021/03/09 11:17:15;;;;;;;1999.90;999.90;;;5.60;99.90;;;;;;4961198;28;20774;-80
2021/03/09 11:19:44;;;;;;;1999.90;999.90;;;5.60;99.90;;;;;;4978881;28;20167;-80
2021/03/09 11:22:10;;;;;;;1999.90;999.90;;;5.60;99.90;;;;;;4961628;28;20203;-80
2021/03/09 11:24:38;;;;;;;1999.90;999.90;;;5.40;99.90;;;;;;4961025;28;20654;-80
2021/03/09 11:27:04;;;;;;;1999.90;999.90;;;5.50;99.90;;;;;;4978418;28;20171;-80
2021/03/09 11:29:33;;;;;;;1999.90;999.90;;;5.50;99.90;;;;;;4961690;28;20166;-81
2021/03/09 11:31:59;;;;;;;1999.90;999.90;;;5.40;99.90;;;;;;4978738;28;20674;-81
2021/03/09 11:34:25;;;;;;;1999.90;999.90;;;5.40;99.90;;;;;;4978453;28;20191;-81
2021/03/09 11:36:52;;;;;;;1999.90;999.90;;;5.50;99.90;;;;;;4981234;28;20413;-81
2021/03/09 11:39:20;;;;;;;1999.90;999.90;;;5.40;99.90;;;;;;4979731;28;20166;-81
2021/03/09 11:41:48;;;;;;;1999.90;999.90;;;5.60;99.90;;;;;;4979468;28;20175;-81
2021/03/09 11:44:13;;;;;;;1999.90;999.90;;;5.70;99.90;;;;;;4978860;28;20191;-81
2021/03/09 11:46:42;;;;;;;1999.90;999.90;;;5.70;99.90;;;;;;4979277;28;20174;-81
2021/03/09 11:49:11;;;;;;;1999.90;999.90;;;5.80;99.90;;;;;;4961740;28;20182;-80
2021/03/09 11:51:37;;;;;;;1999.90;999.90;;;5.80;99.90;;;;;;4962374;28;20199;-80
2021/03/09 11:54:03;;;;;;;1999.90;999.90;;;5.90;99.90;;;;;;4981221;28;20233;-81
2021/03/09 11:56:28;;;;;;;1999.90;999.90;;;5.80;99.90;;;;;;4981103;28;20185;-81
2021/03/09 11:58:54;;;;;;;1999.90;999.90;;;5.60;99.90;;;;;;4962942;28;20167;-81
2021/03/09 12:01:20;;;;;;;1999.90;999.90;;;5.60;99.90;;;;;;4963736;28;20171;-81
2021/03/09 12:03:46;;;;;;;1999.90;999.90;;;5.60;99.90;;;;;;4962152;28;20191;-81
2021/03/09 12:06:13;;;;;;;1999.90;999.90;;;5.70;99.90;;;;;;4962273;28;20414;-81
2021/03/09 12:08:39;;;;;;;1999.90;999.90;;;5.70;99.90;;;;;;4980294;28;20175;-81
2021/03/09 12:11:05;;;;;;;1999.90;999.90;;;5.80;99.90;;;;;;4963782;28;20171;-81
2021/03/09 12:13:30;;;;;;;1999.90;999.90;;;5.90;99.90;;;;;;4980476;28;20179;-81
2021/03/09 12:15:56;;;;;;;1999.90;999.90;;;5.90;99.90;;;;;;4963204;28;20921;-82
2021/03/09 12:18:25;;;;;;;1999.90;999.90;;;5.90;99.90;;;;;;4965212;28;20618;-81
2021/03/09 12:20:51;;;;;;;1999.90;999.90;;;6.00;99.90;;;;;;4986351;28;20175;-81
2021/03/09 12:23:19;;;;;;;1999.90;999.90;;;5.90;99.90;;;;;;4985820;28;20704;-82
2021/03/09 12:25:45;;;;;;;1999.90;999.90;;;5.90;99.90;;;;;;4986437;28;20530;-81